ORO2152 LEZL-LEBL
Flight info
| Callsign | ORO2152 |
|---|---|
| Flight time | N/A |
| Altitude | 32000 |
| Route | BUDIT M445 BEGOX N860 VLC L34 CASIM N608 MATEX |
| Aircraft | C25C/M-SDE2E3FGHRWXY/LB1 |
Departure
| Time | 2026-03-25 16:20 |
|---|---|
| Airport | Seville Airport (LEZL) |
Arrival
| Time | N/A |
|---|---|
| Airport | Josep Tarradellas Barcelona-El Prat Airport (LEBL) |
| Time | Latitude | Longitude | Altitude | Speed | Heading |
|---|---|---|---|---|---|
| 2026-03-25 15:57 | 37.42052 | -5.90564 | 87 ft | 0 kts | 269° |
| 2026-03-25 16:16 | 37.42052 | -5.90583 | 87 ft | 5 kts | 259° |
| 2026-03-25 16:17 | 37.42033 | -5.90572 | 90 ft | 7 kts | 94° |
| 2026-03-25 16:17 | 37.42013 | -5.90527 | 87 ft | 7 kts | 182° |
| 2026-03-25 16:17 | 37.41979 | -5.90561 | 87 ft | 9 kts | 267° |
| 2026-03-25 16:17 | 37.41979 | -5.90685 | 86 ft | 19 kts | 270° |
| 2026-03-25 16:18 | 37.41979 | -5.90867 | 85 ft | 21 kts | 269° |
| 2026-03-25 16:18 | 37.41933 | -5.91022 | 85 ft | 11 kts | 241° |
| 2026-03-25 16:18 | 37.41893 | -5.91106 | 83 ft | 11 kts | 239° |
| 2026-03-25 16:18 | 37.41848 | -5.91187 | 83 ft | 11 kts | 207° |
| 2026-03-25 16:19 | 37.41790 | -5.91178 | 85 ft | 5 kts | 129° |
| 2026-03-25 16:19 | 37.41787 | -5.91162 | 84 ft | 0 kts | 90° |
| 2026-03-25 16:20 | 37.41789 | -5.90858 | 87 ft | 84 kts | 90° |
| 2026-03-25 16:20 | 37.41788 | -5.89827 | 425 ft | 129 kts | 91° |
| 2026-03-25 16:20 | 37.41774 | -5.88615 | 1195 ft | 147 kts | 90° |
| 2026-03-25 16:20 | 37.41805 | -5.87287 | 2030 ft | 161 kts | 88° |
| 2026-03-25 16:21 | 37.41821 | -5.85794 | 2718 ft | 175 kts | 88° |
| 2026-03-25 16:21 | 37.41813 | -5.84253 | 3583 ft | 178 kts | 89° |
| 2026-03-25 16:21 | 37.41810 | -5.82686 | 4415 ft | 180 kts | 88° |
| 2026-03-25 16:21 | 37.41997 | -5.81135 | 5255 ft | 180 kts | 76° |
| 2026-03-25 16:22 | 37.42257 | -5.79574 | 6005 ft | 184 kts | 78° |
| 2026-03-25 16:22 | 37.42491 | -5.77982 | 6743 ft | 187 kts | 79° |
| 2026-03-25 16:22 | 37.42742 | -5.76347 | 7315 ft | 198 kts | 76° |
| 2026-03-25 16:22 | 37.43294 | -5.74651 | 7511 ft | 222 kts | 64° |
| 2026-03-25 16:23 | 37.43967 | -5.72830 | 7705 ft | 238 kts | 66° |
| 2026-03-25 16:23 | 37.44619 | -5.70918 | 8196 ft | 238 kts | 66° |
| 2026-03-25 16:23 | 37.45297 | -5.69002 | 8608 ft | 241 kts | 65° |
| 2026-03-25 16:23 | 37.45997 | -5.67036 | 8747 ft | 254 kts | 66° |
| 2026-03-25 16:24 | 37.46716 | -5.64949 | 8790 ft | 264 kts | 67° |
| 2026-03-25 16:24 | 37.47458 | -5.62796 | 8829 ft | 271 kts | 66° |
| 2026-03-25 16:24 | 37.48234 | -5.60633 | 8964 ft | 272 kts | 65° |
| 2026-03-25 16:24 | 37.49000 | -5.58448 | 9215 ft | 269 kts | 66° |
| 2026-03-25 16:25 | 37.49727 | -5.56324 | 9736 ft | 261 kts | 66° |
| 2026-03-25 16:25 | 37.50514 | -5.54090 | 10044 ft | 297 kts | 66° |
| 2026-03-25 16:25 | 37.51337 | -5.51747 | 11240 ft | 291 kts | 66° |
| 2026-03-25 16:25 | 37.52148 | -5.49389 | 12202 ft | 296 kts | 66° |
| 2026-03-25 16:26 | 37.52983 | -5.46998 | 13183 ft | 300 kts | 66° |
| 2026-03-25 16:26 | 37.53834 | -5.44568 | 14050 ft | 309 kts | 66° |
| 2026-03-25 16:26 | 37.54730 | -5.41979 | 14261 ft | 336 kts | 66° |
| 2026-03-25 16:27 | 37.56627 | -5.36521 | 15938 ft | 341 kts | 66° |
| 2026-03-25 16:27 | 37.57575 | -5.33778 | 16805 ft | 343 kts | 67° |
| 2026-03-25 16:27 | 37.58527 | -5.31018 | 17680 ft | 344 kts | 66° |
| 2026-03-25 16:27 | 37.59496 | -5.28243 | 18514 ft | 347 kts | 67° |
| 2026-03-25 16:28 | 37.60419 | -5.25424 | 19251 ft | 349 kts | 72° |
| 2026-03-25 16:28 | 37.60738 | -5.22386 | 19991 ft | 352 kts | 86° |
| 2026-03-25 16:28 | 37.60930 | -5.19294 | 20842 ft | 355 kts | 82° |
| 2026-03-25 16:28 | 37.61229 | -5.16203 | 21938 ft | 357 kts | 82° |
| 2026-03-25 16:29 | 37.61432 | -5.13097 | 22924 ft | 362 kts | 85° |
| 2026-03-25 16:29 | 37.61605 | -5.09910 | 23839 ft | 366 kts | 83° |
| 2026-03-25 16:29 | 37.61853 | -5.06702 | 24608 ft | 370 kts | 82° |
| 2026-03-25 16:29 | 37.62100 | -5.03457 | 25363 ft | 373 kts | 83° |
| 2026-03-25 16:30 | 37.62305 | -5.00169 | 26089 ft | 377 kts | 83° |
| 2026-03-25 16:30 | 37.62531 | -4.96862 | 26788 ft | 381 kts | 83° |
| 2026-03-25 16:30 | 37.62774 | -4.93516 | 27464 ft | 385 kts | 83° |
| 2026-03-25 16:30 | 37.62999 | -4.90130 | 28108 ft | 389 kts | 83° |
| 2026-03-25 16:31 | 37.63228 | -4.86721 | 28715 ft | 392 kts | 83° |
| 2026-03-25 16:31 | 37.63467 | -4.83281 | 29301 ft | 395 kts | 83° |
| 2026-03-25 16:31 | 37.63698 | -4.79806 | 29853 ft | 399 kts | 83° |
| 2026-03-25 16:31 | 37.63933 | -4.76314 | 30359 ft | 402 kts | 83° |
| 2026-03-25 16:32 | 37.64159 | -4.72876 | 31540 ft | 383 kts | 84° |
| 2026-03-25 16:32 | 37.64380 | -4.69566 | 32076 ft | 381 kts | 84° |
| 2026-03-25 16:32 | 37.64819 | -4.62952 | 32066 ft | 379 kts | 84° |
| 2026-03-25 16:33 | 37.65255 | -4.56353 | 32063 ft | 377 kts | 84° |
| 2026-03-25 16:33 | 37.65681 | -4.49782 | 32074 ft | 375 kts | 84° |
| 2026-03-25 16:34 | 37.66104 | -4.43235 | 32073 ft | 374 kts | 84° |
| 2026-03-25 16:34 | 37.66523 | -4.36620 | 32072 ft | 382 kts | 84° |
| 2026-03-25 16:35 | 37.66960 | -4.29774 | 32087 ft | 404 kts | 84° |
| 2026-03-25 16:35 | 37.67184 | -4.26186 | 32086 ft | 416 kts | 84° |
| 2026-03-25 16:35 | 37.67417 | -4.22518 | 32087 ft | 415 kts | 84° |
| 2026-03-25 16:36 | 37.67859 | -4.15345 | 32091 ft | 413 kts | 84° |
| 2026-03-25 16:36 | 37.68303 | -4.08110 | 32099 ft | 414 kts | 84° |
| 2026-03-25 16:37 | 37.68749 | -4.00851 | 32099 ft | 411 kts | 84° |
| 2026-03-25 16:37 | 37.68956 | -3.97322 | 32088 ft | 395 kts | 85° |
| 2026-03-25 16:37 | 37.69092 | -3.95038 | 32081 ft | 393 kts | 84° |
| 2026-03-25 16:38 | 37.69511 | -3.88140 | 32079 ft | 401 kts | 85° |
| 2026-03-25 16:38 | 37.69937 | -3.80966 | 32089 ft | 416 kts | 85° |
| 2026-03-25 16:39 | 37.70358 | -3.73689 | 32099 ft | 411 kts | 85° |
| 2026-03-25 16:39 | 37.70772 | -3.66572 | 32091 ft | 403 kts | 85° |
| 2026-03-25 16:40 | 37.71175 | -3.59585 | 32086 ft | 397 kts | 85° |
| 2026-03-25 16:40 | 37.71565 | -3.52642 | 32080 ft | 393 kts | 85° |
| 2026-03-25 16:41 | 37.71958 | -3.45831 | 32085 ft | 389 kts | 83° |
| 2026-03-25 16:41 | 37.73207 | -3.39188 | 32084 ft | 393 kts | 71° |
| 2026-03-25 16:42 | 37.75583 | -3.32878 | 32093 ft | 403 kts | 60° |
| 2026-03-25 16:42 | 37.78970 | -3.27162 | 32096 ft | 410 kts | 53° |
| 2026-03-25 16:43 | 37.82534 | -3.21472 | 32104 ft | 414 kts | 53° |
| 2026-03-25 16:43 | 37.86149 | -3.15826 | 32103 ft | 411 kts | 54° |
| 2026-03-25 16:44 | 37.89670 | -3.10216 | 32101 ft | 408 kts | 53° |
| 2026-03-25 16:45 | 37.94970 | -3.01819 | 32094 ft | 406 kts | 53° |
| 2026-03-25 16:45 | 37.98490 | -2.96235 | 32084 ft | 404 kts | 53° |
| 2026-03-25 16:46 | 38.01986 | -2.90665 | 32104 ft | 403 kts | 53° |
| 2026-03-25 16:46 | 38.05473 | -2.85105 | 32099 ft | 403 kts | 53° |
| 2026-03-25 16:47 | 38.08943 | -2.79567 | 32094 ft | 403 kts | 53° |
| 2026-03-25 16:47 | 38.12427 | -2.73990 | 32097 ft | 403 kts | 53° |
| 2026-03-25 16:48 | 38.15910 | -2.68411 | 32107 ft | 402 kts | 54° |
| 2026-03-25 16:48 | 38.19385 | -2.62832 | 32108 ft | 403 kts | 53° |
| 2026-03-25 16:49 | 38.22864 | -2.57230 | 32101 ft | 403 kts | 54° |
| 2026-03-25 16:49 | 38.26346 | -2.51638 | 32103 ft | 403 kts | 54° |
| 2026-03-25 16:50 | 38.29817 | -2.46024 | 32100 ft | 403 kts | 53° |
| 2026-03-25 16:50 | 38.33273 | -2.40443 | 32098 ft | 404 kts | 54° |
| 2026-03-25 16:51 | 38.36745 | -2.34817 | 32101 ft | 404 kts | 53° |
| 2026-03-25 16:51 | 38.40214 | -2.29185 | 32100 ft | 404 kts | 54° |
| 2026-03-25 16:52 | 38.43692 | -2.23544 | 32101 ft | 404 kts | 54° |
| 2026-03-25 16:52 | 38.47157 | -2.17900 | 32100 ft | 404 kts | 53° |
| 2026-03-25 16:53 | 38.50621 | -2.12247 | 32100 ft | 404 kts | 54° |
| 2026-03-25 16:53 | 38.54087 | -2.06598 | 32099 ft | 404 kts | 53° |
| 2026-03-25 16:54 | 38.57542 | -2.00936 | 32091 ft | 404 kts | 53° |
| 2026-03-25 16:54 | 38.60978 | -1.95307 | 32090 ft | 404 kts | 53° |
| 2026-03-25 16:55 | 38.64434 | -1.89635 | 32085 ft | 404 kts | 53° |
| 2026-03-25 16:55 | 38.67886 | -1.83954 | 32085 ft | 404 kts | 53° |
| 2026-03-25 16:56 | 38.71329 | -1.78275 | 32084 ft | 404 kts | 53° |
| 2026-03-25 16:56 | 38.74778 | -1.72590 | 32080 ft | 404 kts | 54° |
| 2026-03-25 16:57 | 38.78216 | -1.66906 | 32080 ft | 404 kts | 53° |
| 2026-03-25 16:57 | 38.81652 | -1.61211 | 32080 ft | 404 kts | 53° |
| 2026-03-25 16:58 | 38.85082 | -1.55515 | 32075 ft | 403 kts | 53° |
| 2026-03-25 16:58 | 38.88512 | -1.49815 | 32072 ft | 403 kts | 53° |